sensor_id;sensor_type;location;lat;lon;timestamp;pressure;altitude;pressure_sealevel;temperature;humidity
51603;BME280;37954;51.980;5.850;2023-04-06T00:03:11;101494.94;;;5.54;51.37
51603;BME280;37954;51.980;5.850;2023-04-06T00:07:23;101503.56;;;5.56;51.96
51603;BME280;37954;51.980;5.850;2023-04-06T00:11:35;101498.41;;;5.54;51.75
51603;BME280;37954;51.980;5.850;2023-04-06T00:15:46;101497.94;;;5.51;52.12
51603;BME280;37954;51.980;5.850;2023-04-06T00:19:58;101495.13;;;5.44;52.43
51603;BME280;37954;51.980;5.850;2023-04-06T00:24:10;101476.50;;;5.36;52.34
51603;BME280;37954;51.980;5.850;2023-04-06T00:28:21;101490.00;;;5.35;52.59
51603;BME280;37954;51.980;5.850;2023-04-06T00:32:37;101483.50;;;5.29;52.96
51603;BME280;37954;51.980;5.850;2023-04-06T00:36:48;101476.06;;;5.16;53.15
51603;BME280;37954;51.980;5.850;2023-04-06T00:41:00;101475.06;;;5.09;53.16
51603;BME280;37954;51.980;5.850;2023-04-06T00:45:12;101470.06;;;5.06;53.41
51603;BME280;37954;51.980;5.850;2023-04-06T00:49:24;101467.94;;;4.94;53.89
51603;BME280;37954;51.980;5.850;2023-04-06T00:53:36;101464.44;;;4.85;54.27
51603;BME280;37954;51.980;5.850;2023-04-06T00:57:48;101452.81;;;4.78;54.76
51603;BME280;37954;51.980;5.850;2023-04-06T01:02:01;101449.00;;;4.72;55.02
51603;BME280;37954;51.980;5.850;2023-04-06T01:06:19;101438.84;;;4.68;55.03
51603;BME280;37954;51.980;5.850;2023-04-06T01:10:40;101445.16;;;4.75;55.54
51603;BME280;37954;51.980;5.850;2023-04-06T01:14:59;101433.03;;;4.72;55.41
51603;BME280;37954;51.980;5.850;2023-04-06T01:19:14;101441.16;;;4.71;55.53
51603;BME280;37954;51.980;5.850;2023-04-06T01:23:30;101428.56;;;4.65;55.11
51603;BME280;37954;51.980;5.850;2023-04-06T01:27:42;101418.41;;;4.60;55.27
51603;BME280;37954;51.980;5.850;2023-04-06T01:31:56;101423.06;;;4.58;55.61
51603;BME280;37954;51.980;5.850;2023-04-06T01:36:09;101417.56;;;4.51;55.70
51603;BME280;37954;51.980;5.850;2023-04-06T01:40:20;101417.91;;;4.40;56.21
51603;BME280;37954;51.980;5.850;2023-04-06T01:44:35;101416.25;;;4.39;56.16
51603;BME280;37954;51.980;5.850;2023-04-06T01:48:58;101409.13;;;4.32;56.62
51603;BME280;37954;51.980;5.850;2023-04-06T01:53:32;101409.28;;;4.30;56.64
51603;BME280;37954;51.980;5.850;2023-04-06T01:57:57;101409.28;;;4.30;57.33
51603;BME280;37954;51.980;5.850;2023-04-06T02:02:19;101398.63;;;4.22;57.10
51603;BME280;37954;51.980;5.850;2023-04-06T02:06:43;101401.13;;;4.24;57.70
51603;BME280;37954;51.980;5.850;2023-04-06T02:10:58;101393.97;;;4.16;57.49
51603;BME280;37954;51.980;5.850;2023-04-06T02:15:18;101394.47;;;4.11;57.70
51603;BME280;37954;51.980;5.850;2023-04-06T02:19:30;101388.47;;;4.09;57.67
51603;BME280;37954;51.980;5.850;2023-04-06T02:23:41;101375.84;;;4.03;57.95
51603;BME280;37954;51.980;5.850;2023-04-06T02:27:53;101379.84;;;4.07;58.58
51603;BME280;37954;51.980;5.850;2023-04-06T02:32:05;101374.38;;;4.09;58.99
51603;BME280;37954;51.980;5.850;2023-04-06T02:36:17;101361.41;;;4.06;59.17
51603;BME280;37954;51.980;5.850;2023-04-06T02:40:29;101361.41;;;4.14;58.65
51603;BME280;37954;51.980;5.850;2023-04-06T02:44:46;101349.28;;;4.11;58.66
51603;BME280;37954;51.980;5.850;2023-04-06T02:48:58;101353.59;;;4.20;58.68
51603;BME280;37954;51.980;5.850;2023-04-06T02:53:14;101360.06;;;4.26;58.82
51603;BME280;37954;51.980;5.850;2023-04-06T02:57:26;101358.56;;;4.24;58.82
51603;BME280;37954;51.980;5.850;2023-04-06T03:01:38;101356.41;;;4.27;59.23
51603;BME280;37954;51.980;5.850;2023-04-06T03:05:50;101356.75;;;4.32;59.15
51603;BME280;37954;51.980;5.850;2023-04-06T03:10:11;101351.75;;;4.45;58.86
51603;BME280;37954;51.980;5.850;2023-04-06T03:14:23;101346.41;;;4.53;59.26
51603;BME280;37954;51.980;5.850;2023-04-06T03:18:34;101346.91;;;4.65;58.68
51603;BME280;37954;51.980;5.850;2023-04-06T03:22:46;101333.56;;;4.73;58.51
51603;BME280;37954;51.980;5.850;2023-04-06T03:27:00;101332.84;;;4.87;58.18
51603;BME280;37954;51.980;5.850;2023-04-06T03:31:12;101331.50;;;4.92;58.03
51603;BME280;37954;51.980;5.850;2023-04-06T03:35:41;101334.66;;;4.95;57.75
51603;BME280;37954;51.980;5.850;2023-04-06T03:39:53;101336.00;;;4.99;57.24
51603;BME280;37954;51.980;5.850;2023-04-06T03:44:07;101318.00;;;5.01;57.06
51603;BME280;37954;51.980;5.850;2023-04-06T03:48:21;101315.63;;;5.06;57.13
51603;BME280;37954;51.980;5.850;2023-04-06T03:52:34;101303.88;;;5.01;56.60
51603;BME280;37954;51.980;5.850;2023-04-06T03:56:46;101317.31;;;5.07;56.59
51603;BME280;37954;51.980;5.850;2023-04-06T04:00:57;101309.16;;;5.09;56.34
51603;BME280;37954;51.980;5.850;2023-04-06T04:05:09;101312.63;;;5.09;56.56
51603;BME280;37954;51.980;5.850;2023-04-06T04:09:21;101306.31;;;5.10;55.79
51603;BME280;37954;51.980;5.850;2023-04-06T04:13:34;101311.97;;;5.15;56.11
51603;BME280;37954;51.980;5.850;2023-04-06T04:17:48;101320.59;;;5.17;56.75
51603;BME280;37954;51.980;5.850;2023-04-06T04:22:01;101317.56;;;5.20;55.72
51603;BME280;37954;51.980;5.850;2023-04-06T04:26:18;101331.03;;;5.27;55.82
51603;BME280;37954;51.980;5.850;2023-04-06T04:30:30;101335.53;;;5.27;55.83
51603;BME280;37954;51.980;5.850;2023-04-06T04:34:42;101335.34;;;5.28;55.32
51603;BME280;37954;51.980;5.850;2023-04-06T04:39:02;101330.84;;;5.29;55.29
51603;BME280;37954;51.980;5.850;2023-04-06T04:43:20;101320.88;;;5.31;55.62
51603;BME280;37954;51.980;5.850;2023-04-06T04:47:31;101332.84;;;5.35;55.91
51603;BME280;37954;51.980;5.850;2023-04-06T04:51:44;101321.34;;;5.34;55.68
51603;BME280;37954;51.980;5.850;2023-04-06T04:56:01;101316.31;;;5.39;55.73
51603;BME280;37954;51.980;5.850;2023-04-06T05:00:13;101320.47;;;5.42;55.85
51603;BME280;37954;51.980;5.850;2023-04-06T05:04:27;101317.44;;;5.45;55.49
51603;BME280;37954;51.980;5.850;2023-04-06T05:08:43;101315.63;;;5.45;55.34
51603;BME280;37954;51.980;5.850;2023-04-06T05:12:54;101311.44;;;5.51;55.46
51603;BME280;37954;51.980;5.850;2023-04-06T05:17:06;101300.41;;;5.54;55.34
51603;BME280;37954;51.980;5.850;2023-04-06T05:21:18;101313.69;;;5.62;55.56
51603;BME280;37954;51.980;5.850;2023-04-06T05:25:56;101308.00;;;5.65;55.22
51603;BME280;37954;51.980;5.850;2023-04-06T05:30:08;101305.91;;;5.75;55.35
51603;BME280;37954;51.980;5.850;2023-04-06T05:34:25;101306.81;;;5.90;55.14
51603;BME280;37954;51.980;5.850;2023-04-06T05:38:38;101294.97;;;5.93;55.01
51603;BME280;37954;51.980;5.850;2023-04-06T05:43:00;101302.19;;;6.07;55.54
51603;BME280;37954;51.980;5.850;2023-04-06T05:47:12;101284.50;;;6.29;54.69
51603;BME280;37954;51.980;5.850;2023-04-06T05:51:25;101296.22;;;6.72;54.44
51603;BME280;37954;51.980;5.850;2023-04-06T05:55:38;101292.06;;;6.84;54.19
51603;BME280;37954;51.980;5.850;2023-04-06T05:59:58;101304.13;;;6.95;53.48
51603;BME280;37954;51.980;5.850;2023-04-06T06:04:22;101302.06;;;7.12;53.46
51603;BME280;37954;51.980;5.850;2023-04-06T06:08:38;101287.97;;;7.18;52.88
51603;BME280;37954;51.980;5.850;2023-04-06T06:12:56;101297.44;;;7.99;52.90
51603;BME280;37954;51.980;5.850;2023-04-06T06:17:08;101285.66;;;9.12;51.09
51603;BME280;37954;51.980;5.850;2023-04-06T06:21:21;101286.47;;;9.12;50.13
51603;BME280;37954;51.980;5.850;2023-04-06T06:25:33;101290.03;;;8.85;49.47
51603;BME280;37954;51.980;5.850;2023-04-06T06:29:44;101289.97;;;8.71;49.29
51603;BME280;37954;51.980;5.850;2023-04-06T06:33:57;101280.50;;;9.17;49.11
51603;BME280;37954;51.980;5.850;2023-04-06T06:38:09;101296.75;;;9.89;48.22
51603;BME280;37954;51.980;5.850;2023-04-06T06:42:21;101291.78;;;10.72;47.43
51603;BME280;37954;51.980;5.850;2023-04-06T06:46:46;101297.25;;;11.86;46.24
51603;BME280;37954;51.980;5.850;2023-04-06T06:50:58;101289.69;;;12.69;44.14
51603;BME280;37954;51.980;5.850;2023-04-06T06:55:10;101294.34;;;12.99;42.81
51603;BME280;37954;51.980;5.850;2023-04-06T06:59:22;101283.78;;;12.97;41.85
51603;BME280;37954;51.980;5.850;2023-04-06T07:03:34;101279.06;;;12.31;41.14
51603;BME280;37954;51.980;5.850;2023-04-06T07:07:46;101285.06;;;11.83;41.81
51603;BME280;37954;51.980;5.850;2023-04-06T07:11:58;101270.84;;;11.38;42.42
51603;BME280;37954;51.980;5.850;2023-04-06T07:16:11;101268.94;;;11.07;42.83
51603;BME280;37954;51.980;5.850;2023-04-06T07:20:22;101275.34;;;11.00;43.44
51603;BME280;37954;51.980;5.850;2023-04-06T07:24:34;101260.91;;;10.94;43.28
51603;BME280;37954;51.980;5.850;2023-04-06T07:28:46;101261.31;;;10.91;43.22
51603;BME280;37954;51.980;5.850;2023-04-06T07:32:58;101275.16;;;10.95;43.44
51603;BME280;37954;51.980;5.850;2023-04-06T07:37:15;101275.56;;;11.05;43.25
51603;BME280;37954;51.980;5.850;2023-04-06T07:41:27;101285.47;;;11.49;43.23
51603;BME280;37954;51.980;5.850;2023-04-06T07:45:39;101278.84;;;11.45;42.67
51603;BME280;37954;51.980;5.850;2023-04-06T07:49:51;101272.16;;;11.23;42.79
51603;BME280;37954;51.980;5.850;2023-04-06T07:54:03;101257.78;;;11.04;42.96
51603;BME280;37954;51.980;5.850;2023-04-06T07:58:15;101271.91;;;10.86;43.52
51603;BME280;37954;51.980;5.850;2023-04-06T08:02:26;101259.56;;;10.65;43.95
51603;BME280;37954;51.980;5.850;2023-04-06T08:06:38;101257.69;;;10.66;44.11
51603;BME280;37954;51.980;5.850;2023-04-06T08:10:51;101260.84;;;10.56;44.23
51603;BME280;37954;51.980;5.850;2023-04-06T08:15:03;101256.69;;;10.47;44.44
51603;BME280;37954;51.980;5.850;2023-04-06T08:19:15;101256.28;;;10.50;44.65
51603;BME280;37954;51.980;5.850;2023-04-06T08:23:28;101260.00;;;10.49;44.76
51603;BME280;37954;51.980;5.850;2023-04-06T08:27:40;101260.81;;;10.63;44.98
51603;BME280;37954;51.980;5.850;2023-04-06T08:31:52;101257.44;;;10.80;45.04
51603;BME280;37954;51.980;5.850;2023-04-06T08:36:13;101260.69;;;10.96;44.69
51603;BME280;37954;51.980;5.850;2023-04-06T08:40:26;101254.63;;;11.13;44.36
51603;BME280;37954;51.980;5.850;2023-04-06T08:44:38;101259.09;;;11.26;44.09
51603;BME280;37954;51.980;5.850;2023-04-06T08:48:52;101250.56;;;11.36;43.93
51603;BME280;37954;51.980;5.850;2023-04-06T08:53:05;101254.50;;;11.40;43.85
51603;BME280;37954;51.980;5.850;2023-04-06T08:57:18;101249.00;;;11.60;43.73
51603;BME280;37954;51.980;5.850;2023-04-06T09:01:30;101249.19;;;11.90;43.49
51603;BME280;37954;51.980;5.850;2023-04-06T09:05:43;101256.81;;;12.17;43.58
51603;BME280;37954;51.980;5.850;2023-04-06T09:09:55;101255.16;;;12.41;43.31
51603;BME280;37954;51.980;5.850;2023-04-06T09:14:07;101261.63;;;12.59;43.17
51603;BME280;37954;51.980;5.850;2023-04-06T09:18:28;101247.75;;;12.92;42.82
51603;BME280;37954;51.980;5.850;2023-04-06T09:22:40;101256.06;;;13.27;42.21
51603;BME280;37954;51.980;5.850;2023-04-06T09:26:53;101254.28;;;13.50;42.10
51603;BME280;37954;51.980;5.850;2023-04-06T09:31:04;101253.13;;;13.70;41.58
51603;BME280;37954;51.980;5.850;2023-04-06T09:35:17;101250.25;;;14.06;41.86
51603;BME280;37954;51.980;5.850;2023-04-06T09:39:31;101241.38;;;14.41;41.20
51603;BME280;37954;51.980;5.850;2023-04-06T09:43:43;101246.25;;;14.79;40.75
51603;BME280;37954;51.980;5.850;2023-04-06T09:47:55;101235.84;;;14.99;40.06
51603;BME280;37954;51.980;5.850;2023-04-06T09:52:08;101247.09;;;15.08;39.97
51603;BME280;37954;51.980;5.850;2023-04-06T09:56:24;101245.22;;;15.08;39.68
51603;BME280;37954;51.980;5.850;2023-04-06T10:00:56;101256.19;;;15.02;39.50
51603;BME280;37954;51.980;5.850;2023-04-06T10:05:31;101244.69;;;14.94;40.05
51603;BME280;37954;51.980;5.850;2023-04-06T10:09:46;101256.72;;;14.75;40.25
51603;BME280;37954;51.980;5.850;2023-04-06T10:13:58;101261.06;;;14.76;39.78
51603;BME280;37954;51.980;5.850;2023-04-06T10:18:09;101249.50;;;14.52;40.86
51603;BME280;37954;51.980;5.850;2023-04-06T10:22:32;101258.88;;;14.50;40.89
51603;BME280;37954;51.980;5.850;2023-04-06T10:27:07;101255.44;;;14.31;41.46
51603;BME280;37954;51.980;5.850;2023-04-06T10:31:25;101261.66;;;14.20;41.72
51603;BME280;37954;51.980;5.850;2023-04-06T10:35:40;101258.25;;;14.13;42.19
51603;BME280;37954;51.980;5.850;2023-04-06T10:39:52;101256.84;;;14.10;42.57
51603;BME280;37954;51.980;5.850;2023-04-06T10:44:20;101255.56;;;14.13;42.39
51603;BME280;37954;51.980;5.850;2023-04-06T10:48:37;101258.25;;;14.13;42.42
51603;BME280;37954;51.980;5.850;2023-04-06T10:53:00;101250.66;;;14.45;42.85
51603;BME280;37954;51.980;5.850;2023-04-06T10:57:12;101250.31;;;14.93;43.18
51603;BME280;37954;51.980;5.850;2023-04-06T11:01:24;101244.28;;;15.14;42.88
51603;BME280;37954;51.980;5.850;2023-04-06T11:05:38;101245.09;;;15.15;42.64
51603;BME280;37954;51.980;5.850;2023-04-06T11:09:49;101246.56;;;15.06;43.11
51603;BME280;37954;51.980;5.850;2023-04-06T11:14:21;101223.63;;;14.96;43.14
51603;BME280;37954;51.980;5.850;2023-04-06T11:18:34;101240.31;;;15.05;43.50
51603;BME280;37954;51.980;5.850;2023-04-06T11:22:52;101241.91;;;15.18;43.68
51603;BME280;37954;51.980;5.850;2023-04-06T11:27:07;101246.34;;;15.24;44.57
51603;BME280;37954;51.980;5.850;2023-04-06T11:31:18;101225.97;;;15.05;44.95
51603;BME280;37954;51.980;5.850;2023-04-06T11:35:31;101249.19;;;14.89;45.93
51603;BME280;37954;51.980;5.850;2023-04-06T11:39:51;101249.25;;;14.54;48.32
51603;BME280;37954;51.980;5.850;2023-04-06T11:44:03;101249.31;;;14.24;50.13
51603;BME280;37954;51.980;5.850;2023-04-06T11:48:20;101243.66;;;13.79;52.35
51603;BME280;37954;51.980;5.850;2023-04-06T11:52:32;101243.50;;;13.62;54.40
51603;BME280;37954;51.980;5.850;2023-04-06T11:56:46;101217.59;;;13.31;54.56
51603;BME280;37954;51.980;5.850;2023-04-06T12:01:03;101251.56;;;13.20;54.67
51603;BME280;37954;51.980;5.850;2023-04-06T12:05:15;101231.25;;;13.00;54.76
51603;BME280;37954;51.980;5.850;2023-04-06T12:09:27;101241.69;;;12.96;55.36
51603;BME280;37954;51.980;5.850;2023-04-06T12:13:39;101245.00;;;12.80;55.57
51603;BME280;37954;51.980;5.850;2023-04-06T12:17:51;101247.00;;;12.48;55.67
51603;BME280;37954;51.980;5.850;2023-04-06T12:22:03;101229.25;;;12.22;57.04
51603;BME280;37954;51.980;5.850;2023-04-06T12:26:14;101251.28;;;12.12;58.63
51603;BME280;37954;51.980;5.850;2023-04-06T12:30:26;101233.31;;;11.81;59.05
51603;BME280;37954;51.980;5.850;2023-04-06T12:34:38;101228.94;;;11.56;60.43
51603;BME280;37954;51.980;5.850;2023-04-06T12:38:50;101223.03;;;11.40;61.03
51603;BME280;37954;51.980;5.850;2023-04-06T12:43:02;101224.97;;;11.27;62.63
51603;BME280;37954;51.980;5.850;2023-04-06T12:47:14;101215.75;;;11.09;62.64
51603;BME280;37954;51.980;5.850;2023-04-06T12:51:29;101216.56;;;11.10;63.17
51603;BME280;37954;51.980;5.850;2023-04-06T12:55:42;101216.84;;;11.02;63.81
51603;BME280;37954;51.980;5.850;2023-04-06T12:59:53;101209.63;;;10.96;64.31
51603;BME280;37954;51.980;5.850;2023-04-06T13:04:06;101201.44;;;10.77;65.62
51603;BME280;37954;51.980;5.850;2023-04-06T13:08:19;101216.56;;;10.72;66.14
51603;BME280;37954;51.980;5.850;2023-04-06T13:12:31;101197.34;;;10.62;67.27
51603;BME280;37954;51.980;5.850;2023-04-06T13:16:42;101212.63;;;10.68;67.90
51603;BME280;37954;51.980;5.850;2023-04-06T13:20:55;101206.44;;;10.61;68.45
51603;BME280;37954;51.980;5.850;2023-04-06T13:25:07;101200.50;;;10.52;68.79
51603;BME280;37954;51.980;5.850;2023-04-06T13:29:19;101196.78;;;10.40;70.21
51603;BME280;37954;51.980;5.850;2023-04-06T13:33:31;101190.22;;;10.36;69.88
51603;BME280;37954;51.980;5.850;2023-04-06T13:37:43;101185.69;;;10.23;71.50
51603;BME280;37954;51.980;5.850;2023-04-06T13:41:54;101179.72;;;10.21;71.66
51603;BME280;37954;51.980;5.850;2023-04-06T13:46:09;101178.66;;;10.16;72.01
51603;BME280;37954;51.980;5.850;2023-04-06T13:50:21;101174.75;;;10.05;72.95
51603;BME280;37954;51.980;5.850;2023-04-06T13:54:32;101165.25;;;10.09;73.37
51603;BME280;37954;51.980;5.850;2023-04-06T13:58:44;101163.78;;;10.13;73.52
51603;BME280;37954;51.980;5.850;2023-04-06T14:02:56;101170.81;;;10.14;74.27
51603;BME280;37954;51.980;5.850;2023-04-06T14:07:08;101162.34;;;10.10;74.27
51603;BME280;37954;51.980;5.850;2023-04-06T14:11:20;101157.41;;;10.07;73.75
51603;BME280;37954;51.980;5.850;2023-04-06T14:15:31;101150.41;;;10.00;74.24
51603;BME280;37954;51.980;5.850;2023-04-06T14:19:43;101137.59;;;9.95;75.78
51603;BME280;37954;51.980;5.850;2023-04-06T14:23:55;101163.81;;;10.00;76.49
51603;BME280;37954;51.980;5.850;2023-04-06T14:28:10;101143.41;;;9.86;77.13
51603;BME280;37954;51.980;5.850;2023-04-06T14:32:21;101144.25;;;9.86;77.24
51603;BME280;37954;51.980;5.850;2023-04-06T14:36:33;101137.81;;;9.87;77.53
51603;BME280;37954;51.980;5.850;2023-04-06T14:40:48;101133.47;;;9.93;77.40
51603;BME280;37954;51.980;5.850;2023-04-06T14:44:59;101129.75;;;9.87;78.69
51603;BME280;37954;51.980;5.850;2023-04-06T14:49:11;101122.56;;;9.81;79.00
51603;BME280;37954;51.980;5.850;2023-04-06T14:53:23;101132.25;;;9.75;78.57
51603;BME280;37954;51.980;5.850;2023-04-06T14:57:35;101127.75;;;9.69;79.53
51603;BME280;37954;51.980;5.850;2023-04-06T15:01:46;101131.47;;;9.68;81.12
51603;BME280;37954;51.980;5.850;2023-04-06T15:05:58;101122.41;;;9.50;81.12
51603;BME280;37954;51.980;5.850;2023-04-06T15:10:10;101127.97;;;9.48;81.61
51603;BME280;37954;51.980;5.850;2023-04-06T15:14:22;101112.47;;;9.37;81.85
51603;BME280;37954;51.980;5.850;2023-04-06T15:18:34;101111.47;;;9.31;81.40
51603;BME280;37954;51.980;5.850;2023-04-06T15:22:46;101105.25;;;9.24;82.06
51603;BME280;37954;51.980;5.850;2023-04-06T15:26:58;101108.13;;;9.23;82.27
51603;BME280;37954;51.980;5.850;2023-04-06T15:31:19;101106.50;;;9.22;83.06
51603;BME280;37954;51.980;5.850;2023-04-06T15:35:47;101099.69;;;9.13;83.39
51603;BME280;37954;51.980;5.850;2023-04-06T15:40:00;101095.34;;;9.18;83.40
51603;BME280;37954;51.980;5.850;2023-04-06T15:44:12;101094.94;;;9.21;84.43
51603;BME280;37954;51.980;5.850;2023-04-06T15:48:23;101087.94;;;9.14;85.03
51603;BME280;37954;51.980;5.850;2023-04-06T15:52:37;101080.09;;;9.05;85.05
51603;BME280;37954;51.980;5.850;2023-04-06T15:56:49;101075.34;;;9.01;85.53
51603;BME280;37954;51.980;5.850;2023-04-06T16:01:16;101086.28;;;8.99;85.64
51603;BME280;37954;51.980;5.850;2023-04-06T16:05:29;101076.56;;;8.92;86.18
51603;BME280;37954;51.980;5.850;2023-04-06T16:09:50;101070.19;;;8.80;86.14
51603;BME280;37954;51.980;5.850;2023-04-06T16:14:02;101064.19;;;8.71;87.00
51603;BME280;37954;51.980;5.850;2023-04-06T16:18:17;101067.31;;;8.81;87.42
51603;BME280;37954;51.980;5.850;2023-04-06T16:22:29;101029.56;;;8.63;87.83
51603;BME280;37954;51.980;5.850;2023-04-06T16:26:41;101061.53;;;8.91;87.67
51603;BME280;37954;51.980;5.850;2023-04-06T16:30:53;101058.44;;;8.87;88.20
51603;BME280;37954;51.980;5.850;2023-04-06T16:35:05;101056.97;;;8.85;88.57
51603;BME280;37954;51.980;5.850;2023-04-06T16:39:17;101046.69;;;8.82;88.64
51603;BME280;37954;51.980;5.850;2023-04-06T16:43:28;101064.41;;;8.83;89.42
51603;BME280;37954;51.980;5.850;2023-04-06T16:47:40;101046.25;;;8.71;88.73
51603;BME280;37954;51.980;5.850;2023-04-06T16:51:52;101042.56;;;8.79;89.10
51603;BME280;37954;51.980;5.850;2023-04-06T16:56:05;101053.09;;;8.81;88.96
51603;BME280;37954;51.980;5.850;2023-04-06T17:00:17;101046.69;;;8.75;89.91
51603;BME280;37954;51.980;5.850;2023-04-06T17:04:29;101058.84;;;8.78;90.61
51603;BME280;37954;51.980;5.850;2023-04-06T17:08:41;101057.19;;;8.77;90.76
51603;BME280;37954;51.980;5.850;2023-04-06T17:12:53;101033.06;;;8.63;91.27
51603;BME280;37954;51.980;5.850;2023-04-06T17:17:05;101026.47;;;8.66;90.53
51603;BME280;37954;51.980;5.850;2023-04-06T17:21:17;101048.56;;;8.81;90.99
51603;BME280;37954;51.980;5.850;2023-04-06T17:25:30;101045.88;;;8.81;91.69
51603;BME280;37954;51.980;5.850;2023-04-06T17:29:42;101042.13;;;8.69;91.94
51603;BME280;37954;51.980;5.850;2023-04-06T17:33:54;101060.66;;;8.70;92.49
51603;BME280;37954;51.980;5.850;2023-04-06T17:38:06;101061.28;;;8.66;92.95
51603;BME280;37954;51.980;5.850;2023-04-06T17:42:18;101037.97;;;8.53;92.68
51603;BME280;37954;51.980;5.850;2023-04-06T17:46:30;101051.81;;;8.63;93.25
51603;BME280;37954;51.980;5.850;2023-04-06T17:50:42;101069.09;;;8.67;93.73
51603;BME280;37954;51.980;5.850;2023-04-06T17:54:54;101051.78;;;8.57;93.50
51603;BME280;37954;51.980;5.850;2023-04-06T17:59:07;101044.34;;;8.52;93.62
51603;BME280;37954;51.980;5.850;2023-04-06T18:03:20;101032.63;;;8.47;94.51
51603;BME280;37954;51.980;5.850;2023-04-06T18:07:32;101054.06;;;8.60;94.61
51603;BME280;37954;51.980;5.850;2023-04-06T18:11:44;101037.97;;;8.53;95.47
51603;BME280;37954;51.980;5.850;2023-04-06T18:15:59;101056.75;;;8.66;95.13
51603;BME280;37954;51.980;5.850;2023-04-06T18:20:12;101055.13;;;8.65;95.16
51603;BME280;37954;51.980;5.850;2023-04-06T18:24:26;101061.91;;;8.68;95.71
51603;BME280;37954;51.980;5.850;2023-04-06T18:28:53;101026.00;;;8.43;95.86
51603;BME280;37954;51.980;5.850;2023-04-06T18:33:04;101044.16;;;8.54;95.90
51603;BME280;37954;51.980;5.850;2023-04-06T18:37:18;101035.50;;;8.45;96.30
51603;BME280;37954;51.980;5.850;2023-04-06T18:41:29;101043.34;;;8.60;96.48
51603;BME280;37954;51.980;5.850;2023-04-06T18:45:41;101037.38;;;8.58;96.34
51603;BME280;37954;51.980;5.850;2023-04-06T18:49:56;101024.78;;;8.45;96.50
51603;BME280;37954;51.980;5.850;2023-04-06T18:54:08;101050.75;;;8.58;96.12
51603;BME280;37954;51.980;5.850;2023-04-06T18:58:20;101047.28;;;8.64;96.26
51603;BME280;37954;51.980;5.850;2023-04-06T19:02:31;101037.81;;;8.61;95.80
51603;BME280;37954;51.980;5.850;2023-04-06T19:06:43;101044.19;;;8.73;95.52
51603;BME280;37954;51.980;5.850;2023-04-06T19:10:56;101034.72;;;8.64;95.91
51603;BME280;37954;51.980;5.850;2023-04-06T19:15:08;101035.53;;;8.65;95.85
51603;BME280;37954;51.980;5.850;2023-04-06T19:19:20;101052.22;;;8.67;95.54
51603;BME280;37954;51.980;5.850;2023-04-06T19:23:37;101008.50;;;8.40;95.00
51603;BME280;37954;51.980;5.850;2023-04-06T19:27:56;101040.06;;;8.58;95.05
51603;BME280;37954;51.980;5.850;2023-04-06T19:32:08;101055.13;;;8.65;94.58
51603;BME280;37954;51.980;5.850;2023-04-06T19:36:22;101056.97;;;8.65;94.96
51603;BME280;37954;51.980;5.850;2023-04-06T19:40:34;101037.78;;;8.55;94.86
51603;BME280;37954;51.980;5.850;2023-04-06T19:44:46;101049.34;;;8.62;94.88
51603;BME280;37954;51.980;5.850;2023-04-06T19:48:59;101056.97;;;8.71;95.08
51603;BME280;37954;51.980;5.850;2023-04-06T19:53:12;101046.25;;;8.65;95.13
51603;BME280;37954;51.980;5.850;2023-04-06T19:57:23;101045.19;;;8.66;95.11
51603;BME280;37954;51.980;5.850;2023-04-06T20:01:36;101037.41;;;8.64;94.74
51603;BME280;37954;51.980;5.850;2023-04-06T20:05:48;101031.00;;;8.59;94.96
51603;BME280;37954;51.980;5.850;2023-04-06T20:10:00;101047.91;;;8.72;94.95
51603;BME280;37954;51.980;5.850;2023-04-06T20:14:14;101047.69;;;8.74;94.94
51603;BME280;37954;51.980;5.850;2023-04-06T20:18:30;101048.31;;;8.76;95.06
51603;BME280;37954;51.980;5.850;2023-04-06T20:22:42;101039.25;;;8.70;95.02
51603;BME280;37954;51.980;5.850;2023-04-06T20:26:53;101035.53;;;8.71;94.89
51603;BME280;37954;51.980;5.850;2023-04-06T20:31:05;101049.78;;;8.79;95.37
51603;BME280;37954;51.980;5.850;2023-04-06T20:35:17;101061.31;;;8.86;95.30
51603;BME280;37954;51.980;5.850;2023-04-06T20:39:29;101051.44;;;8.80;95.57
51603;BME280;37954;51.980;5.850;2023-04-06T20:43:41;101050.19;;;8.82;95.58
51603;BME280;37954;51.980;5.850;2023-04-06T20:47:53;101012.66;;;8.62;95.66
51603;BME280;37954;51.980;5.850;2023-04-06T20:52:05;101037.22;;;8.79;95.90
51603;BME280;37954;51.980;5.850;2023-04-06T20:56:16;101011.44;;;8.71;95.55
51603;BME280;37954;51.980;5.850;2023-04-06T21:00:29;101041.53;;;8.87;95.58
51603;BME280;37954;51.980;5.850;2023-04-06T21:04:42;101022.16;;;8.85;95.81
51603;BME280;37954;51.980;5.850;2023-04-06T21:08:54;101006.72;;;8.80;95.85
51603;BME280;37954;51.980;5.850;2023-04-06T21:13:06;101009.19;;;8.82;95.65
51603;BME280;37954;51.980;5.850;2023-04-06T21:17:18;101033.72;;;8.98;95.67
51603;BME280;37954;51.980;5.850;2023-04-06T21:21:29;101029.59;;;9.02;95.73
51603;BME280;37954;51.980;5.850;2023-04-06T21:25:41;101001.56;;;8.85;95.72
51603;BME280;37954;51.980;5.850;2023-04-06T21:29:53;101010.41;;;8.86;95.75
51603;BME280;37954;51.980;5.850;2023-04-06T21:34:09;101025.25;;;9.01;95.56
51603;BME280;37954;51.980;5.850;2023-04-06T21:38:21;100987.34;;;8.78;95.89
51603;BME280;37954;51.980;5.850;2023-04-06T21:42:33;101043.00;;;9.16;96.12
51603;BME280;37954;51.980;5.850;2023-04-06T21:46:45;101037.84;;;9.14;96.19
51603;BME280;37954;51.980;5.850;2023-04-06T21:50:56;101026.94;;;9.16;96.10
51603;BME280;37954;51.980;5.850;2023-04-06T21:55:09;101027.31;;;9.19;96.29
51603;BME280;37954;51.980;5.850;2023-04-06T21:59:20;101004.84;;;9.07;96.25
51603;BME280;37954;51.980;5.850;2023-04-06T22:03:32;101040.72;;;9.26;96.20
51603;BME280;37954;51.980;5.850;2023-04-06T22:07:44;101039.50;;;9.28;96.15
51603;BME280;37954;51.980;5.850;2023-04-06T22:11:57;101019.91;;;9.21;96.14
51603;BME280;37954;51.980;5.850;2023-04-06T22:16:08;101019.06;;;9.21;96.25
51603;BME280;37954;51.980;5.850;2023-04-06T22:20:20;101026.28;;;9.27;96.17